Los Osos, CA

7:07 PM PST on February 07, 2016 (GMT -0800)
Bayview Heights | | Change Station
CLOSE
Current Station
Personal Weather Station
Location: Baywood-Los Osos, CA
Elevation: 312 ft
Nearby Weather Stations

Elev 312 ft 35.30 °N, 120.83 °W | Updated 8 seconds ago

Clear
Clear
57.4 °F
Feels Like 57.4 °F
N
0.0
Wind Variable Wind from North
Gusts 0.0 mph

Today
High -- | Low -- °F
--% Chance of Precip.
Yesterday
High -- | Low -- °F
Precip. -- in
Pressure 30.15 in
Visibility 10.0 miles
Clouds Clear
Dew Point 44 °F
Humidity 62%
Rainfall 0.00 in
Snow Depth Not available.
6:57 AM 5:37 PM
Waning Crescent, 0% visible
METAR KSBP 080256Z 12004KT 10SM CLR 15/06 A3015 RMK AO2 SLP208 T01500061 53009
Pressure 30.15 in
Visibility 10.0 miles
Clouds Clear
Dew Point 44 °F
Humidity 62%
Rainfall 0.00 in
Snow Depth Not available.
6:57 AM 5:37 PM
Waning Crescent, 0% visible
METAR KSBP 080256Z 12004KT 10SM CLR 15/06 A3015 RMK AO2 SLP208 T01500061 53009

10-Day Weather Forecast

Almanac

Astronomy

Feb. 07, 2016 Rise Set
Actual Time
Civil Twilight
Nautical Twilight
Astronomical Twilight
Moon
Length of Visible Light
Length of Day
Tomorrow will be .
, % of the Moon is Illuminated

Today's Extremes

State Highs State Lows

Community

WunderPhotos

Upload Photos

1,891,373 photos uploaded!

WunderBlog® & News

Nearby

Air Quality

  Air Quality AQ Index Pollutant
Not available.

Snow Depth

Station Depth Elevation

Earthquake Activity

City Distance Mag. Time & Date
Minimum magnitude displayed is 2.5.

Coastal Water Temperatures

Place Temperature

Stations

Nearby Weather Stations

Station Location Temp. Windchill Dew Point Humidity Wind Precip. Elev Updated Type
                   

Watches & Warnings

There are currently no watches in effect.